Franklin, West Virginia
Current Conditions -  °F | °C
As of 3:20 PM on Wednesday 26 Nov 2014 (Local Time) from KW99 Reporting Station
Light Snow Light Snow  
Wind Chill: 34°   Ceiling: 600
Heat Index: 34°   Visibility: 1.2mi
Dew Point: 34°   Wind: 0mph
Humidity: 97%   Direction: NA
Pressure: 30"   Gusts: NA
Location:  38.64°N, 79.33°W
Report Text: KW99 262020Z AUTO 00000KT 1 1/4SM -SN OVC006 01/01 A3000 RMK AO2 P0001 T00130009
Loading
Personal Weather Stations






























Interactive Weather Map New forecast layout! Learn more

10-Day Weather Forecast

Advertisements
Track Severe Weather on mobile